createdAt,value
2023-01-22T00:01:54.063Z,4.72
2023-01-22T00:04:20.735Z,4.93
2023-01-22T00:06:47.303Z,4.43
2023-01-22T00:09:15.715Z,3.15
2023-01-22T00:11:42.414Z,3.47
2023-01-22T00:14:09.435Z,3.30
2023-01-22T00:16:36.077Z,2.65
2023-01-22T00:19:02.500Z,3.72
2023-01-22T00:21:33.375Z,3.75
2023-01-22T00:24:00.471Z,3.90
2023-01-22T00:26:27.392Z,2.55
2023-01-22T00:28:54.052Z,4.40
2023-01-22T00:31:20.823Z,3.70
2023-01-22T00:33:47.801Z,2.60
2023-01-22T00:36:17.037Z,2.85
2023-01-22T00:38:43.703Z,2.80
2023-01-22T00:41:10.783Z,4.63
2023-01-22T00:43:40.748Z,3.70
2023-01-22T00:46:09.219Z,3.53
2023-01-22T00:48:36.751Z,2.72
2023-01-22T00:51:03.805Z,2.55
2023-01-22T00:53:31.146Z,2.53
2023-01-22T00:55:59.926Z,4.10
2023-01-22T00:58:27.663Z,3.35
2023-01-22T01:00:55.670Z,3.38
2023-01-22T01:03:31.357Z,2.92
2023-01-22T01:06:06.596Z,5.50
2023-01-22T01:08:38.717Z,2.08
2023-01-22T01:11:09.053Z,3.33
2023-01-22T01:13:42.849Z,4.15
2023-01-22T01:16:14.768Z,1.70
2023-01-22T01:18:41.727Z,2.47
2023-01-22T01:21:08.525Z,2.63
2023-01-22T01:23:36.020Z,2.70
2023-01-22T01:26:09.433Z,2.47
2023-01-22T01:28:37.477Z,3.50
2023-01-22T01:31:10.130Z,2.13
2023-01-22T01:33:37.403Z,3.60
2023-01-22T01:36:10.324Z,2.45
2023-01-22T01:38:36.820Z,2.90
2023-01-22T01:41:03.718Z,3.17
2023-01-22T01:43:30.299Z,3.28
2023-01-22T01:45:59.409Z,2.35
2023-01-22T01:48:42.265Z,2.97
2023-01-22T01:51:18.000Z,3.53
2023-01-22T01:53:47.777Z,2.53
2023-01-22T01:56:28.901Z,2.30
2023-01-22T01:59:02.470Z,3.38
2023-01-22T02:03:56.865Z,1.55
2023-01-22T02:06:23.589Z,2.28
2023-01-22T02:08:51.792Z,1.75
2023-01-22T02:11:19.996Z,3.05
2023-01-22T02:14:21.985Z,2.58
2023-01-22T02:16:48.451Z,1.73
2023-01-22T02:19:15.104Z,2.08
2023-01-22T02:21:44.748Z,2.03
2023-01-22T02:24:13.692Z,1.65
2023-01-22T02:26:42.347Z,1.83
2023-01-22T02:29:10.545Z,2.47
2023-01-22T02:31:38.696Z,2.83
2023-01-22T02:34:05.984Z,4.32
2023-01-22T02:36:35.093Z,2.33
2023-01-22T02:39:01.906Z,2.80
2023-01-22T02:41:28.619Z,1.80
2023-01-22T02:43:55.209Z,2.10
2023-01-22T02:46:22.303Z,2.10
2023-01-22T02:48:48.709Z,1.95
2023-01-22T02:51:15.246Z,1.92
2023-01-22T02:53:41.700Z,2.28
2023-01-22T02:56:09.325Z,4.05
2023-01-22T02:58:36.194Z,1.30
2023-01-22T03:01:20.795Z,2.40
2023-01-22T03:03:53.546Z,1.23
2023-01-22T03:06:21.904Z,2.10
2023-01-22T03:08:50.128Z,1.38
2023-01-22T03:11:16.935Z,1.60
2023-01-22T03:14:02.166Z,2.28
2023-01-22T03:16:47.080Z,1.92
2023-01-22T03:19:32.296Z,1.30
2023-01-22T03:22:00.389Z,1.17
2023-01-22T03:24:26.963Z,2.65
2023-01-22T03:26:53.555Z,1.25
2023-01-22T03:29:20.098Z,4.30
2023-01-22T03:34:20.535Z,2.15
2023-01-22T03:36:47.389Z,1.90
2023-01-22T03:39:14.191Z,1.67
2023-01-22T03:41:41.090Z,1.45
2023-01-22T03:44:11.627Z,2.88
2023-01-22T03:46:40.276Z,1.60
2023-01-22T03:49:08.632Z,1.50
2023-01-22T03:51:35.884Z,1.20
2023-01-22T03:54:02.714Z,1.38
2023-01-22T03:56:29.570Z,1.73
2023-01-22T03:58:57.178Z,1.30
2023-01-22T04:01:26.135Z,1.75
2023-01-22T04:03:54.555Z,1.25
2023-01-22T04:06:22.628Z,1.50
2023-01-22T04:08:50.854Z,1.48
2023-01-22T04:11:18.444Z,2.00
2023-01-22T04:13:45.576Z,1.63
2023-01-22T04:16:14.148Z,1.92
2023-01-22T04:18:41.967Z,2.30
2023-01-22T04:21:09.375Z,1.40
2023-01-22T04:23:36.014Z,2.15
2023-01-22T04:26:02.468Z,1.30
2023-01-22T04:28:28.999Z,1.27
2023-01-22T04:30:56.104Z,1.60
2023-01-22T04:33:22.817Z,1.55
2023-01-22T04:35:51.958Z,1.27
2023-01-22T04:38:18.771Z,1.15
2023-01-22T04:40:45.469Z,1.98
2023-01-22T04:43:12.341Z,3.47
2023-01-22T04:45:38.763Z,1.45
2023-01-22T04:48:05.633Z,2.55
2023-01-22T04:50:34.094Z,1.77
2023-01-22T04:53:01.644Z,2.45
2023-01-22T04:55:29.269Z,2.40
2023-01-22T04:58:00.705Z,2.58
2023-01-22T05:00:28.421Z,3.05
2023-01-22T05:02:59.277Z,2.33
2023-01-22T05:05:26.439Z,2.38
2023-01-22T05:07:53.254Z,2.25
2023-01-22T05:10:20.366Z,2.22
2023-01-22T05:12:47.343Z,3.75
2023-01-22T05:15:23.523Z,2.80
2023-01-22T05:17:50.805Z,3.47
2023-01-22T05:20:18.590Z,4.57
2023-01-22T05:22:45.395Z,4.25
2023-01-22T05:25:12.253Z,3.30
2023-01-22T05:27:39.999Z,3.55
2023-01-22T05:30:09.443Z,3.35
2023-01-22T05:32:35.887Z,3.45
2023-01-22T05:35:03.645Z,3.05
2023-01-22T05:37:31.396Z,2.97
2023-01-22T05:39:57.900Z,3.10
2023-01-22T05:42:24.500Z,3.05
2023-01-22T05:44:50.932Z,2.78
2023-01-22T05:47:17.491Z,3.97
2023-01-22T05:49:43.879Z,3.58
2023-01-22T05:52:13.163Z,2.95
2023-01-22T05:54:39.944Z,3.13
2023-01-22T05:57:07.254Z,3.83
2023-01-22T05:59:33.736Z,2.72
2023-01-22T06:02:00.154Z,2.35
2023-01-22T06:04:26.723Z,2.75
2023-01-22T06:06:53.134Z,2.67
2023-01-22T06:09:19.671Z,2.97
2023-01-22T06:11:46.083Z,6.03
2023-01-22T06:14:12.488Z,7.68
2023-01-22T06:16:39.416Z,7.60
2023-01-22T06:19:06.273Z,7.35
2023-01-22T06:21:32.680Z,11.05
2023-01-22T06:23:59.100Z,8.70
2023-01-22T06:26:25.516Z,6.60
2023-01-22T06:28:53.330Z,4.68
2023-01-22T06:31:19.814Z,5.47
2023-01-22T06:33:46.251Z,4.13
2023-01-22T06:36:13.665Z,6.35
2023-01-22T06:38:40.058Z,7.18
2023-01-22T06:41:06.544Z,5.60
2023-01-22T06:43:40.455Z,3.72
2023-01-22T06:46:07.005Z,3.45
2023-01-22T06:48:33.941Z,3.60
2023-01-22T06:51:00.508Z,5.35
2023-01-22T06:53:27.615Z,3.80
2023-01-22T06:55:54.811Z,4.93
2023-01-22T06:58:21.923Z,3.50
2023-01-22T07:00:48.339Z,3.67
2023-01-22T07:03:14.936Z,4.70
2023-01-22T07:05:41.428Z,4.28
2023-01-22T07:08:07.885Z,5.10
2023-01-22T07:10:34.306Z,7.38
2023-01-22T07:13:01.655Z,8.10
2023-01-22T07:15:28.133Z,5.85
2023-01-22T07:17:54.854Z,6.35
2023-01-22T07:20:23.269Z,7.30
2023-01-22T07:22:50.658Z,6.07
2023-01-22T07:25:18.068Z,6.25
2023-01-22T07:27:44.594Z,7.22
2023-01-22T07:30:11.445Z,5.47
2023-01-22T07:32:37.891Z,4.72
2023-01-22T07:35:04.577Z,7.13
2023-01-22T07:37:31.015Z,9.05
2023-01-22T07:39:57.417Z,7.68
2023-01-22T07:42:23.943Z,8.40
2023-01-22T07:44:50.357Z,10.38
2023-01-22T07:47:16.848Z,10.27
2023-01-22T07:49:43.434Z,8.10
2023-01-22T07:52:09.920Z,7.03
2023-01-22T07:54:36.524Z,5.90
2023-01-22T07:57:03.877Z,7.15
2023-01-22T07:59:30.569Z,9.88
2023-01-22T08:01:57.944Z,4.72
2023-01-22T08:04:24.991Z,5.63
2023-01-22T08:06:52.483Z,4.55
2023-01-22T08:09:24.831Z,4.25
2023-01-22T08:11:52.474Z,4.53
2023-01-22T08:14:19.659Z,4.25
2023-01-22T08:16:46.155Z,4.90
2023-01-22T08:19:12.848Z,4.60
2023-01-22T08:21:39.239Z,4.35
2023-01-22T08:24:08.075Z,4.05
2023-01-22T08:26:34.738Z,3.80
2023-01-22T08:29:04.345Z,4.28
2023-01-22T08:31:33.444Z,4.13
2023-01-22T08:34:00.241Z,3.13
2023-01-22T08:36:27.134Z,3.72
2023-01-22T08:38:54.127Z,3.22
2023-01-22T08:41:21.651Z,5.10
2023-01-22T08:43:48.124Z,5.07
2023-01-22T08:46:14.906Z,5.00
2023-01-22T08:48:43.366Z,5.40
2023-01-22T08:51:13.167Z,5.22
2023-01-22T08:53:39.685Z,5.57
2023-01-22T08:56:08.092Z,8.10
2023-01-22T08:58:34.640Z,5.20
2023-01-22T09:01:01.192Z,6.97
2023-01-22T09:03:29.094Z,5.80
2023-01-22T09:05:58.943Z,5.65
2023-01-22T09:08:25.593Z,5.03
2023-01-22T09:10:52.424Z,5.93
2023-01-22T09:13:18.878Z,7.03
2023-01-22T09:15:45.322Z,5.75
2023-01-22T09:18:11.739Z,4.72
2023-01-22T09:20:38.161Z,7.07
2023-01-22T09:23:04.634Z,5.80
2023-01-22T09:25:31.136Z,4.95
2023-01-22T09:28:01.207Z,6.20
2023-01-22T09:30:30.256Z,5.57
2023-01-22T09:32:57.222Z,9.18
2023-01-22T09:35:23.952Z,7.03
2023-01-22T09:37:50.467Z,7.43
2023-01-22T09:40:40.811Z,4.90
2023-01-22T09:43:23.889Z,9.60
2023-01-22T09:45:54.787Z,5.63
2023-01-22T09:48:22.773Z,3.05
2023-01-22T09:50:50.724Z,4.00
2023-01-22T09:53:20.331Z,4.35
2023-01-22T09:55:50.523Z,9.43
2023-01-22T09:58:25.286Z,5.07
2023-01-22T10:01:02.424Z,3.90
2023-01-22T10:03:41.688Z,6.35
2023-01-22T10:06:14.754Z,5.68
2023-01-22T10:08:59.198Z,6.63
2023-01-22T10:11:26.086Z,8.27
2023-01-22T10:13:58.484Z,5.78
2023-01-22T10:16:25.325Z,5.35
2023-01-22T10:19:01.168Z,5.05
2023-01-22T10:21:41.260Z,6.35
2023-01-22T10:24:10.755Z,6.25
2023-01-22T10:26:38.692Z,5.78
2023-01-22T10:29:12.704Z,6.80
2023-01-22T10:31:45.729Z,10.15
2023-01-22T10:34:14.366Z,7.47
2023-01-22T10:36:40.867Z,7.40
2023-01-22T10:39:15.969Z,8.90
2023-01-22T10:41:45.451Z,7.38
2023-01-22T10:44:19.296Z,8.88
2023-01-22T10:46:46.595Z,6.90
2023-01-22T10:49:17.204Z,5.35
2023-01-22T10:51:50.610Z,4.88
2023-01-22T10:54:22.118Z,7.38
2023-01-22T10:56:49.751Z,3.92
2023-01-22T10:59:26.492Z,7.15
2023-01-22T11:01:59.237Z,5.00
2023-01-22T11:04:29.254Z,5.90
2023-01-22T11:07:17.563Z,5.28
2023-01-22T11:09:54.605Z,7.47
2023-01-22T11:12:35.652Z,6.43
2023-01-22T11:15:13.065Z,7.18
2023-01-22T11:17:46.691Z,5.53
2023-01-22T11:22:48.261Z,5.68
2023-01-22T11:25:14.698Z,9.20
2023-01-22T11:28:07.697Z,5.47
2023-01-22T11:30:53.516Z,10.30
2023-01-22T11:34:03.571Z,5.45
2023-01-22T11:36:40.319Z,8.63
2023-01-22T11:39:24.946Z,6.38
2023-01-22T11:42:02.697Z,5.35
2023-01-22T11:44:50.641Z,6.13
2023-01-22T11:47:31.734Z,5.50
2023-01-22T11:50:23.308Z,5.93
2023-01-22T11:53:23.129Z,6.38
2023-01-22T11:56:02.644Z,7.13
2023-01-22T11:58:52.429Z,7.35
2023-01-22T12:01:31.508Z,9.65
2023-01-22T12:04:12.971Z,7.68
2023-01-22T12:07:09.761Z,12.82
2023-01-22T12:09:48.347Z,7.82
2023-01-22T12:12:22.716Z,8.70
2023-01-22T12:15:03.841Z,9.65
2023-01-22T12:17:39.880Z,8.75
2023-01-22T12:20:30.813Z,7.80
2023-01-22T12:23:17.509Z,7.95
2023-01-22T12:25:50.520Z,9.68
2023-01-22T12:28:27.801Z,9.52
2023-01-22T12:31:02.751Z,10.10
2023-01-22T12:33:32.069Z,13.57
2023-01-22T12:36:02.547Z,11.40
2023-01-22T12:38:50.798Z,12.63
2023-01-22T12:41:27.704Z,12.75
2023-01-22T12:43:57.954Z,12.10
2023-01-22T12:46:59.927Z,12.10
2023-01-22T12:49:27.330Z,14.88
2023-01-22T12:51:56.004Z,12.70
2023-01-22T12:54:36.394Z,13.60
2023-01-22T12:57:10.555Z,14.95
2023-01-22T12:59:36.974Z,13.68
2023-01-22T13:02:26.313Z,11.45
2023-01-22T13:04:53.759Z,12.65
2023-01-22T13:07:29.443Z,12.10
2023-01-22T13:10:29.254Z,12.15
2023-01-22T13:12:59.955Z,15.52
2023-01-22T13:15:32.589Z,18.13
2023-01-22T13:18:16.817Z,13.65
2023-01-22T13:20:53.093Z,16.70
2023-01-22T13:23:21.606Z,14.35
2023-01-22T13:25:54.723Z,17.73
2023-01-22T13:28:23.186Z,14.38
2023-01-22T13:31:04.148Z,14.63
2023-01-22T13:33:31.452Z,15.15
2023-01-22T13:35:58.405Z,13.05
2023-01-22T13:38:30.919Z,16.88
2023-01-22T13:41:02.714Z,14.70
2023-01-22T13:43:29.920Z,14.45
2023-01-22T13:45:58.131Z,17.25
2023-01-22T13:48:26.506Z,13.77
2023-01-22T13:50:56.463Z,16.50
2023-01-22T13:53:39.503Z,12.20
2023-01-22T13:56:07.415Z,14.97
2023-01-22T13:58:49.409Z,13.52
2023-01-22T14:01:35.881Z,16.05
2023-01-22T14:04:07.881Z,17.45
2023-01-22T14:06:46.194Z,12.30
2023-01-22T14:09:13.071Z,11.50
2023-01-22T14:11:40.552Z,10.18
2023-01-22T14:14:17.951Z,14.57
2023-01-22T14:16:44.872Z,13.95
2023-01-22T14:19:11.400Z,15.40
2023-01-22T14:21:37.871Z,16.63
2023-01-22T14:24:05.186Z,13.52
2023-01-22T14:26:32.754Z,17.10
2023-01-22T14:28:59.278Z,14.90
2023-01-22T14:31:25.823Z,11.30
2023-01-22T14:33:52.409Z,13.70
2023-01-22T14:36:20.328Z,17.98
2023-01-22T14:38:49.586Z,12.60
2023-01-22T14:41:16.047Z,13.65
2023-01-22T14:43:42.514Z,12.82
2023-01-22T14:46:09.035Z,17.20
2023-01-22T14:48:35.611Z,12.65
2023-01-22T14:51:08.677Z,13.00
2023-01-22T14:53:36.381Z,14.43
2023-01-22T14:56:02.864Z,12.48
2023-01-22T14:58:29.329Z,13.25
2023-01-22T15:00:55.759Z,16.17
2023-01-22T15:03:22.262Z,14.25
2023-01-22T15:05:52.673Z,11.57
2023-01-22T15:08:19.767Z,14.82
2023-01-22T15:10:46.300Z,15.65
2023-01-22T15:13:12.835Z,17.77
2023-01-22T15:15:40.318Z,16.75
2023-01-22T15:18:06.839Z,15.95
2023-01-22T15:20:33.238Z,16.67
2023-01-22T15:23:00.191Z,16.55
2023-01-22T15:25:27.344Z,16.67
2023-01-22T15:27:53.892Z,14.35
2023-01-22T15:30:20.704Z,15.15
2023-01-22T15:32:47.579Z,18.60
2023-01-22T15:35:14.249Z,16.92
2023-01-22T15:37:40.919Z,20.55
2023-01-22T15:40:09.780Z,19.23
2023-01-22T15:42:36.855Z,16.35
2023-01-22T15:45:10.503Z,16.13
2023-01-22T15:50:04.464Z,13.75
2023-01-22T15:52:31.042Z,12.85
2023-01-22T15:54:57.656Z,14.00
2023-01-22T15:57:24.093Z,14.23
2023-01-22T15:59:51.563Z,11.93
2023-01-22T16:02:18.447Z,13.20
2023-01-22T16:04:44.928Z,12.38
2023-01-22T16:07:11.357Z,12.18
2023-01-22T16:09:40.969Z,14.02
2023-01-22T16:12:07.699Z,10.40
2023-01-22T16:14:34.167Z,11.38
2023-01-22T16:17:00.732Z,12.55
2023-01-22T16:19:27.226Z,12.63
2023-01-22T16:21:53.840Z,12.75
2023-01-22T16:24:20.743Z,9.48
2023-01-22T16:26:47.326Z,11.65
2023-01-22T16:29:13.812Z,12.30
2023-01-22T16:31:40.631Z,12.63
2023-01-22T16:34:10.215Z,13.55
2023-01-22T16:36:37.272Z,13.82
2023-01-22T16:39:04.328Z,13.23
2023-01-22T16:41:33.680Z,12.07
2023-01-22T16:44:11.809Z,13.02
2023-01-22T16:46:40.564Z,14.48
2023-01-22T16:49:25.167Z,14.18
2023-01-22T16:51:53.864Z,14.65
2023-01-22T16:54:30.680Z,14.60
2023-01-22T16:57:03.090Z,14.10
2023-01-22T16:59:30.334Z,13.25
2023-01-22T17:02:00.150Z,11.85
2023-01-22T17:04:28.309Z,12.65
2023-01-22T17:06:56.933Z,11.45
2023-01-22T17:09:26.604Z,14.70
2023-01-22T17:11:55.737Z,14.40
2023-01-22T17:14:24.383Z,16.45
2023-01-22T17:16:51.232Z,14.80
2023-01-22T17:19:18.693Z,14.27
2023-01-22T17:21:45.530Z,16.30
2023-01-22T17:24:13.038Z,12.70
2023-01-22T17:26:42.659Z,13.95
2023-01-22T17:29:09.567Z,16.55
2023-01-22T17:31:36.988Z,13.68
2023-01-22T17:34:04.491Z,11.80
2023-01-22T17:36:31.690Z,13.10
2023-01-22T17:38:58.445Z,15.18
2023-01-22T17:41:25.975Z,14.75
2023-01-22T17:43:55.210Z,15.55
2023-01-22T17:46:24.830Z,15.15
2023-01-22T17:48:52.192Z,13.05
2023-01-22T17:51:21.985Z,16.95
2023-01-22T17:53:50.396Z,17.48
2023-01-22T17:56:22.487Z,14.98
2023-01-22T17:58:51.775Z,13.75
2023-01-22T18:01:20.845Z,14.10
2023-01-22T18:03:48.186Z,15.82
2023-01-22T18:06:14.809Z,12.20
2023-01-22T18:08:42.485Z,16.63
2023-01-22T18:11:15.650Z,13.82
2023-01-22T18:13:42.762Z,14.15
2023-01-22T18:16:13.764Z,13.23
2023-01-22T18:18:41.409Z,10.82
2023-01-22T18:21:11.354Z,13.88
2023-01-22T18:23:37.795Z,13.88
2023-01-22T18:26:06.432Z,13.48
2023-01-22T18:28:33.724Z,14.57
2023-01-22T18:31:05.738Z,12.10
2023-01-22T18:33:35.578Z,13.23
2023-01-22T18:36:02.323Z,11.88
2023-01-22T18:38:29.144Z,11.50
2023-01-22T18:40:56.932Z,12.48
2023-01-22T18:43:23.378Z,18.42
2023-01-22T18:45:49.776Z,15.43
2023-01-22T18:48:16.845Z,15.63
2023-01-22T18:50:43.923Z,14.90
2023-01-22T18:53:10.356Z,13.70
2023-01-22T18:55:36.887Z,12.75
2023-01-22T18:58:08.652Z,13.60
2023-01-22T19:00:37.976Z,15.13
2023-01-22T19:03:04.582Z,16.88
2023-01-22T19:05:31.084Z,14.02
2023-01-22T19:07:57.516Z,13.23
2023-01-22T19:10:25.034Z,15.45
2023-01-22T19:12:51.504Z,17.25
2023-01-22T19:15:18.525Z,16.45
2023-01-22T19:17:45.147Z,14.38
2023-01-22T19:20:13.184Z,12.45
2023-01-22T19:22:39.711Z,14.93
2023-01-22T19:25:06.867Z,15.05
2023-01-22T19:27:33.586Z,15.48
2023-01-22T19:30:00.693Z,14.60
2023-01-22T19:32:28.048Z,19.10
2023-01-22T19:34:55.326Z,14.43
2023-01-22T19:37:21.786Z,17.48
2023-01-22T19:39:48.385Z,17.58
2023-01-22T19:42:15.816Z,17.05
2023-01-22T19:44:43.080Z,19.33
2023-01-22T19:47:10.967Z,18.60
2023-01-22T19:49:37.668Z,15.27
2023-01-22T19:52:04.187Z,18.15
2023-01-22T19:54:30.850Z,17.70
2023-01-22T19:56:57.410Z,15.88
2023-01-22T19:59:24.460Z,17.88
2023-01-22T20:01:51.139Z,15.55
2023-01-22T20:04:27.131Z,24.42
2023-01-22T20:07:02.035Z,19.33
2023-01-22T20:09:30.111Z,17.85
2023-01-22T20:11:58.206Z,25.52
2023-01-22T20:14:29.698Z,18.08
2023-01-22T20:16:57.778Z,17.75
2023-01-22T20:19:24.315Z,16.23
2023-01-22T20:21:50.784Z,16.00
2023-01-22T20:24:17.742Z,18.35
2023-01-22T20:26:44.184Z,20.55
2023-01-22T20:29:12.879Z,17.73
2023-01-22T20:31:39.582Z,16.42
2023-01-22T20:34:06.335Z,20.42
2023-01-22T20:36:33.826Z,17.75
2023-01-22T20:39:02.065Z,17.60
2023-01-22T20:41:30.618Z,17.05
2023-01-22T20:43:57.346Z,18.00
2023-01-22T20:46:26.275Z,18.25
2023-01-22T20:48:55.754Z,24.52
2023-01-22T20:51:24.557Z,18.88
2023-01-22T20:53:53.529Z,19.88
2023-01-22T20:56:28.380Z,21.92
2023-01-22T20:58:57.317Z,20.60
2023-01-22T21:01:24.296Z,16.90
2023-01-22T21:03:50.879Z,20.38
2023-01-22T21:06:19.654Z,18.63
2023-01-22T21:08:51.311Z,19.88
2023-01-22T21:11:20.417Z,17.08
2023-01-22T21:13:48.583Z,20.42
2023-01-22T21:16:18.066Z,20.45
2023-01-22T21:18:46.247Z,22.20
2023-01-22T21:21:18.170Z,20.90
2023-01-22T21:23:46.733Z,18.88
2023-01-22T21:26:19.078Z,17.60
2023-01-22T21:28:47.892Z,18.88
2023-01-22T21:31:17.033Z,16.05
2023-01-22T21:33:44.062Z,17.27
2023-01-22T21:36:12.325Z,17.45
2023-01-22T21:38:40.165Z,15.80
2023-01-22T21:41:12.585Z,16.90
2023-01-22T21:43:59.486Z,15.75
2023-01-22T21:46:27.274Z,18.55
2023-01-22T21:48:58.256Z,14.68
2023-01-22T21:51:25.845Z,15.80
2023-01-22T21:53:54.220Z,18.25
2023-01-22T21:56:20.874Z,16.45
2023-01-22T21:58:47.659Z,15.10
2023-01-22T22:01:20.644Z,20.33
2023-01-22T22:03:47.885Z,18.75
2023-01-22T22:06:14.371Z,16.85
2023-01-22T22:08:43.701Z,19.35
2023-01-22T22:11:12.866Z,18.67
2023-01-22T22:13:39.769Z,17.85
2023-01-22T22:16:08.661Z,18.13
2023-01-22T22:18:35.833Z,18.30
2023-01-22T22:21:05.371Z,19.40
2023-01-22T22:23:32.743Z,17.33
2023-01-22T22:26:00.597Z,18.42
2023-01-22T22:28:27.111Z,17.80
2023-01-22T22:30:54.049Z,18.80
2023-01-22T22:33:20.509Z,19.08
2023-01-22T22:35:47.406Z,18.73
2023-01-22T22:38:15.022Z,20.27
2023-01-22T22:40:41.815Z,21.02
2023-01-22T22:43:08.992Z,24.70
2023-01-22T22:45:37.682Z,22.33
2023-01-22T22:48:05.318Z,19.85
2023-01-22T22:50:31.986Z,21.98
2023-01-22T22:52:58.469Z,18.20
2023-01-22T22:55:28.653Z,19.05
2023-01-22T22:57:55.264Z,20.60
2023-01-22T23:00:22.208Z,19.63
2023-01-22T23:02:48.769Z,19.73
2023-01-22T23:05:15.286Z,18.80
2023-01-22T23:07:41.936Z,17.30
2023-01-22T23:10:28.693Z,19.60
2023-01-22T23:12:57.623Z,18.25
2023-01-22T23:15:29.774Z,17.70
2023-01-22T23:17:57.539Z,18.83
2023-01-22T23:20:27.794Z,13.70
2023-01-22T23:22:58.759Z,12.70
2023-01-22T23:25:25.320Z,14.52
2023-01-22T23:27:52.085Z,14.48
2023-01-22T23:30:20.089Z,14.98
2023-01-22T23:32:46.881Z,12.30
2023-01-22T23:35:13.410Z,14.23
2023-01-22T23:37:41.416Z,13.30
2023-01-22T23:40:08.700Z,9.60
2023-01-22T23:42:35.116Z,15.27
2023-01-22T23:45:01.594Z,10.45
2023-01-22T23:47:28.046Z,11.18
2023-01-22T23:49:54.591Z,11.85
2023-01-22T23:52:21.201Z,11.60
2023-01-22T23:54:48.337Z,8.95
2023-01-22T23:57:14.769Z,10.82
2023-01-22T23:59:41.197Z,7.53
